sensor_id;sensor_type;location;lat;lon;timestamp;P1;durP1;ratioP1;P2;durP2;ratioP2
68792;SDS011;55778;54.346;10.210;2024-01-06T00:00:19;6.72;;;3.15;;
68792;SDS011;55778;54.346;10.210;2024-01-06T00:02:48;7.82;;;3.10;;
68792;SDS011;55778;54.346;10.210;2024-01-06T00:05:13;5.47;;;3.03;;
68792;SDS011;55778;54.346;10.210;2024-01-06T00:07:39;7.13;;;2.85;;
68792;SDS011;55778;54.346;10.210;2024-01-06T00:10:05;5.60;;;2.58;;
68792;SDS011;55778;54.346;10.210;2024-01-06T00:12:31;6.40;;;2.92;;
68792;SDS011;55778;54.346;10.210;2024-01-06T00:14:57;5.40;;;2.75;;
68792;SDS011;55778;54.346;10.210;2024-01-06T00:17:22;4.63;;;2.30;;
68792;SDS011;55778;54.346;10.210;2024-01-06T00:19:47;5.65;;;2.85;;
68792;SDS011;55778;54.346;10.210;2024-01-06T00:22:17;4.78;;;2.70;;
68792;SDS011;55778;54.346;10.210;2024-01-06T00:24:45;5.50;;;2.55;;
68792;SDS011;55778;54.346;10.210;2024-01-06T00:27:11;4.22;;;2.50;;
68792;SDS011;55778;54.346;10.210;2024-01-06T00:29:36;4.57;;;2.30;;
68792;SDS011;55778;54.346;10.210;2024-01-06T00:32:02;6.38;;;2.40;;
68792;SDS011;55778;54.346;10.210;2024-01-06T00:34:27;5.85;;;2.80;;
68792;SDS011;55778;54.346;10.210;2024-01-06T00:36:53;5.32;;;2.15;;
68792;SDS011;55778;54.346;10.210;2024-01-06T00:39:22;6.90;;;3.17;;
68792;SDS011;55778;54.346;10.210;2024-01-06T00:41:47;5.68;;;2.58;;
68792;SDS011;55778;54.346;10.210;2024-01-06T00:44:13;6.43;;;2.45;;
68792;SDS011;55778;54.346;10.210;2024-01-06T00:46:39;6.10;;;2.10;;
68792;SDS011;55778;54.346;10.210;2024-01-06T00:49:05;4.63;;;2.58;;
68792;SDS011;55778;54.346;10.210;2024-01-06T00:51:30;5.03;;;2.20;;
68792;SDS011;55778;54.346;10.210;2024-01-06T00:54:02;6.57;;;2.40;;
68792;SDS011;55778;54.346;10.210;2024-01-06T00:56:30;4.80;;;2.20;;
68792;SDS011;55778;54.346;10.210;2024-01-06T00:58:56;5.25;;;2.15;;
68792;SDS011;55778;54.346;10.210;2024-01-06T01:01:22;4.78;;;2.45;;
68792;SDS011;55778;54.346;10.210;2024-01-06T01:03:49;5.10;;;2.30;;
68792;SDS011;55778;54.346;10.210;2024-01-06T01:06:15;4.40;;;2.28;;
68792;SDS011;55778;54.346;10.210;2024-01-06T01:08:40;4.82;;;2.60;;
68792;SDS011;55778;54.346;10.210;2024-01-06T01:11:07;5.28;;;2.33;;
68792;SDS011;55778;54.346;10.210;2024-01-06T01:13:33;6.43;;;2.50;;
68792;SDS011;55778;54.346;10.210;2024-01-06T01:15:59;4.85;;;2.50;;
68792;SDS011;55778;54.346;10.210;2024-01-06T01:18:25;5.10;;;2.40;;
68792;SDS011;55778;54.346;10.210;2024-01-06T01:20:50;5.97;;;2.25;;
68792;SDS011;55778;54.346;10.210;2024-01-06T01:23:16;5.68;;;2.90;;
68792;SDS011;55778;54.346;10.210;2024-01-06T01:25:41;6.32;;;2.15;;
68792;SDS011;55778;54.346;10.210;2024-01-06T01:28:07;5.35;;;2.40;;
68792;SDS011;55778;54.346;10.210;2024-01-06T01:30:32;5.30;;;2.45;;
68792;SDS011;55778;54.346;10.210;2024-01-06T01:32:58;6.47;;;2.28;;
68792;SDS011;55778;54.346;10.210;2024-01-06T01:35:29;5.00;;;2.47;;
68792;SDS011;55778;54.346;10.210;2024-01-06T01:37:55;5.70;;;2.92;;
68792;SDS011;55778;54.346;10.210;2024-01-06T01:40:21;5.50;;;2.40;;
68792;SDS011;55778;54.346;10.210;2024-01-06T01:42:46;5.30;;;2.40;;
68792;SDS011;55778;54.346;10.210;2024-01-06T01:45:14;4.28;;;2.08;;
68792;SDS011;55778;54.346;10.210;2024-01-06T01:47:43;4.35;;;2.10;;
68792;SDS011;55778;54.346;10.210;2024-01-06T01:50:10;5.15;;;2.20;;
68792;SDS011;55778;54.346;10.210;2024-01-06T01:52:37;6.70;;;3.00;;
68792;SDS011;55778;54.346;10.210;2024-01-06T01:55:04;6.55;;;2.97;;
68792;SDS011;55778;54.346;10.210;2024-01-06T01:57:30;4.13;;;2.00;;
68792;SDS011;55778;54.346;10.210;2024-01-06T01:59:55;5.57;;;3.00;;
68792;SDS011;55778;54.346;10.210;2024-01-06T02:02:22;5.18;;;2.05;;
68792;SDS011;55778;54.346;10.210;2024-01-06T02:04:48;6.50;;;2.42;;
68792;SDS011;55778;54.346;10.210;2024-01-06T02:07:13;5.45;;;2.60;;
68792;SDS011;55778;54.346;10.210;2024-01-06T02:09:39;7.07;;;3.38;;
68792;SDS011;55778;54.346;10.210;2024-01-06T02:12:04;4.28;;;2.10;;
68792;SDS011;55778;54.346;10.210;2024-01-06T02:14:30;4.53;;;2.33;;
68792;SDS011;55778;54.346;10.210;2024-01-06T02:16:57;6.10;;;2.38;;
68792;SDS011;55778;54.346;10.210;2024-01-06T02:19:23;6.72;;;2.60;;
68792;SDS011;55778;54.346;10.210;2024-01-06T02:21:51;7.00;;;2.50;;
68792;SDS011;55778;54.346;10.210;2024-01-06T02:24:18;5.53;;;2.75;;
68792;SDS011;55778;54.346;10.210;2024-01-06T02:26:43;7.07;;;2.78;;
68792;SDS011;55778;54.346;10.210;2024-01-06T02:29:08;4.75;;;2.38;;
68792;SDS011;55778;54.346;10.210;2024-01-06T02:31:34;6.07;;;2.75;;
68792;SDS011;55778;54.346;10.210;2024-01-06T02:33:59;5.30;;;2.42;;
68792;SDS011;55778;54.346;10.210;2024-01-06T02:36:25;6.65;;;3.05;;
68792;SDS011;55778;54.346;10.210;2024-01-06T02:38:50;6.45;;;2.88;;
68792;SDS011;55778;54.346;10.210;2024-01-06T02:41:15;8.20;;;3.22;;
68792;SDS011;55778;54.346;10.210;2024-01-06T02:43:41;5.32;;;2.67;;
68792;SDS011;55778;54.346;10.210;2024-01-06T02:46:06;6.07;;;2.70;;
68792;SDS011;55778;54.346;10.210;2024-01-06T02:48:32;5.05;;;2.45;;
68792;SDS011;55778;54.346;10.210;2024-01-06T02:50:57;6.90;;;2.80;;
68792;SDS011;55778;54.346;10.210;2024-01-06T02:53:23;5.68;;;2.70;;
68792;SDS011;55778;54.346;10.210;2024-01-06T02:55:48;7.07;;;2.75;;
68792;SDS011;55778;54.346;10.210;2024-01-06T02:58:13;5.03;;;2.53;;
68792;SDS011;55778;54.346;10.210;2024-01-06T03:00:39;5.90;;;2.83;;
68792;SDS011;55778;54.346;10.210;2024-01-06T03:03:04;6.25;;;2.92;;
68792;SDS011;55778;54.346;10.210;2024-01-06T03:05:30;4.32;;;2.50;;
68792;SDS011;55778;54.346;10.210;2024-01-06T03:07:55;5.72;;;2.78;;
68792;SDS011;55778;54.346;10.210;2024-01-06T03:10:20;5.57;;;2.88;;
68792;SDS011;55778;54.346;10.210;2024-01-06T03:12:46;7.78;;;2.97;;
68792;SDS011;55778;54.346;10.210;2024-01-06T03:15:11;3.33;;;2.05;;
68792;SDS011;55778;54.346;10.210;2024-01-06T03:17:37;10.05;;;2.40;;
68792;SDS011;55778;54.346;10.210;2024-01-06T03:20:02;4.47;;;2.25;;
68792;SDS011;55778;54.346;10.210;2024-01-06T03:22:29;6.65;;;2.70;;
68792;SDS011;55778;54.346;10.210;2024-01-06T03:24:54;4.18;;;2.60;;
68792;SDS011;55778;54.346;10.210;2024-01-06T03:27:19;4.25;;;2.25;;
68792;SDS011;55778;54.346;10.210;2024-01-06T03:29:45;6.82;;;2.88;;
68792;SDS011;55778;54.346;10.210;2024-01-06T03:32:10;9.95;;;3.15;;
68792;SDS011;55778;54.346;10.210;2024-01-06T03:34:36;7.43;;;3.50;;
68792;SDS011;55778;54.346;10.210;2024-01-06T03:37:01;6.13;;;2.50;;
68792;SDS011;55778;54.346;10.210;2024-01-06T03:39:27;5.72;;;2.80;;
68792;SDS011;55778;54.346;10.210;2024-01-06T03:41:53;5.80;;;2.50;;
68792;SDS011;55778;54.346;10.210;2024-01-06T03:44:18;6.28;;;3.00;;
68792;SDS011;55778;54.346;10.210;2024-01-06T03:46:43;5.95;;;3.00;;
68792;SDS011;55778;54.346;10.210;2024-01-06T03:49:09;6.32;;;2.65;;
68792;SDS011;55778;54.346;10.210;2024-01-06T03:51:34;5.18;;;2.75;;
68792;SDS011;55778;54.346;10.210;2024-01-06T03:53:59;8.52;;;3.13;;
68792;SDS011;55778;54.346;10.210;2024-01-06T03:56:25;9.02;;;2.95;;
68792;SDS011;55778;54.346;10.210;2024-01-06T03:58:50;4.88;;;2.67;;
68792;SDS011;55778;54.346;10.210;2024-01-06T04:01:15;5.07;;;2.70;;
68792;SDS011;55778;54.346;10.210;2024-01-06T04:03:41;6.72;;;3.22;;
68792;SDS011;55778;54.346;10.210;2024-01-06T04:06:06;5.10;;;2.50;;
68792;SDS011;55778;54.346;10.210;2024-01-06T04:08:32;7.00;;;3.10;;
68792;SDS011;55778;54.346;10.210;2024-01-06T04:10:57;5.65;;;2.67;;
68792;SDS011;55778;54.346;10.210;2024-01-06T04:13:22;6.75;;;3.00;;
68792;SDS011;55778;54.346;10.210;2024-01-06T04:15:50;7.28;;;2.85;;
68792;SDS011;55778;54.346;10.210;2024-01-06T04:18:15;7.15;;;3.13;;
68792;SDS011;55778;54.346;10.210;2024-01-06T04:20:41;8.63;;;2.85;;
68792;SDS011;55778;54.346;10.210;2024-01-06T04:23:06;7.03;;;3.17;;
68792;SDS011;55778;54.346;10.210;2024-01-06T04:25:32;5.03;;;2.45;;
68792;SDS011;55778;54.346;10.210;2024-01-06T04:27:57;6.28;;;2.70;;
68792;SDS011;55778;54.346;10.210;2024-01-06T04:30:22;8.40;;;3.33;;
68792;SDS011;55778;54.346;10.210;2024-01-06T04:32:49;5.88;;;2.78;;
68792;SDS011;55778;54.346;10.210;2024-01-06T04:35:14;6.38;;;2.90;;
68792;SDS011;55778;54.346;10.210;2024-01-06T04:37:40;7.80;;;3.15;;
68792;SDS011;55778;54.346;10.210;2024-01-06T04:40:05;7.40;;;2.50;;
68792;SDS011;55778;54.346;10.210;2024-01-06T04:42:32;5.85;;;3.00;;
68792;SDS011;55778;54.346;10.210;2024-01-06T04:44:58;4.20;;;2.40;;
68792;SDS011;55778;54.346;10.210;2024-01-06T04:47:23;5.15;;;2.42;;
68792;SDS011;55778;54.346;10.210;2024-01-06T04:49:49;5.70;;;2.25;;
68792;SDS011;55778;54.346;10.210;2024-01-06T04:52:15;6.75;;;2.40;;
68792;SDS011;55778;54.346;10.210;2024-01-06T04:54:40;6.82;;;2.80;;
68792;SDS011;55778;54.346;10.210;2024-01-06T04:57:06;3.65;;;2.05;;
68792;SDS011;55778;54.346;10.210;2024-01-06T04:59:31;4.72;;;2.10;;
68792;SDS011;55778;54.346;10.210;2024-01-06T05:01:59;3.33;;;1.92;;
68792;SDS011;55778;54.346;10.210;2024-01-06T05:04:25;5.05;;;2.10;;
68792;SDS011;55778;54.346;10.210;2024-01-06T05:06:51;4.75;;;2.45;;
68792;SDS011;55778;54.346;10.210;2024-01-06T05:09:16;5.75;;;2.38;;
68792;SDS011;55778;54.346;10.210;2024-01-06T05:11:45;3.08;;;1.50;;
68792;SDS011;55778;54.346;10.210;2024-01-06T05:14:11;4.20;;;1.95;;
68792;SDS011;55778;54.346;10.210;2024-01-06T05:16:37;2.92;;;1.70;;
68792;SDS011;55778;54.346;10.210;2024-01-06T05:19:02;5.25;;;2.20;;
68792;SDS011;55778;54.346;10.210;2024-01-06T05:21:28;2.80;;;1.58;;
68792;SDS011;55778;54.346;10.210;2024-01-06T05:23:54;4.60;;;1.70;;
68792;SDS011;55778;54.346;10.210;2024-01-06T05:26:19;5.85;;;1.90;;
68792;SDS011;55778;54.346;10.210;2024-01-06T05:28:45;3.40;;;1.58;;
68792;SDS011;55778;54.346;10.210;2024-01-06T05:31:10;3.67;;;1.50;;
68792;SDS011;55778;54.346;10.210;2024-01-06T05:33:35;2.40;;;1.70;;
68792;SDS011;55778;54.346;10.210;2024-01-06T05:36:01;3.47;;;1.60;;
68792;SDS011;55778;54.346;10.210;2024-01-06T05:38:26;3.08;;;1.40;;
68792;SDS011;55778;54.346;10.210;2024-01-06T05:40:52;3.25;;;1.60;;
68792;SDS011;55778;54.346;10.210;2024-01-06T05:43:18;5.10;;;1.60;;
68792;SDS011;55778;54.346;10.210;2024-01-06T05:45:43;3.70;;;1.80;;
68792;SDS011;55778;54.346;10.210;2024-01-06T05:48:09;3.53;;;1.60;;
68792;SDS011;55778;54.346;10.210;2024-01-06T05:50:35;3.75;;;1.50;;
68792;SDS011;55778;54.346;10.210;2024-01-06T05:53:00;3.38;;;1.85;;
68792;SDS011;55778;54.346;10.210;2024-01-06T05:55:26;7.45;;;2.03;;
68792;SDS011;55778;54.346;10.210;2024-01-06T05:57:51;3.05;;;1.45;;
68792;SDS011;55778;54.346;10.210;2024-01-06T06:00:16;4.47;;;1.30;;
68792;SDS011;55778;54.346;10.210;2024-01-06T06:02:42;6.50;;;1.95;;
68792;SDS011;55778;54.346;10.210;2024-01-06T06:05:07;5.75;;;1.67;;
68792;SDS011;55778;54.346;10.210;2024-01-06T06:07:33;4.07;;;1.38;;
68792;SDS011;55778;54.346;10.210;2024-01-06T06:10:04;6.13;;;1.50;;
68792;SDS011;55778;54.346;10.210;2024-01-06T06:12:31;5.05;;;2.42;;
68792;SDS011;55778;54.346;10.210;2024-01-06T06:14:57;3.97;;;1.45;;
68792;SDS011;55778;54.346;10.210;2024-01-06T06:17:22;3.50;;;1.40;;
68792;SDS011;55778;54.346;10.210;2024-01-06T06:19:47;5.47;;;1.30;;
68792;SDS011;55778;54.346;10.210;2024-01-06T06:22:13;4.93;;;1.52;;
68792;SDS011;55778;54.346;10.210;2024-01-06T06:24:38;2.63;;;1.30;;
68792;SDS011;55778;54.346;10.210;2024-01-06T06:27:04;2.75;;;1.20;;
68792;SDS011;55778;54.346;10.210;2024-01-06T06:29:29;5.78;;;1.35;;
68792;SDS011;55778;54.346;10.210;2024-01-06T06:31:55;1.95;;;1.23;;
68792;SDS011;55778;54.346;10.210;2024-01-06T06:34:20;3.90;;;1.23;;
68792;SDS011;55778;54.346;10.210;2024-01-06T06:36:45;1.90;;;1.10;;
68792;SDS011;55778;54.346;10.210;2024-01-06T06:39:11;4.03;;;1.23;;
68792;SDS011;55778;54.346;10.210;2024-01-06T06:41:36;2.53;;;1.00;;
68792;SDS011;55778;54.346;10.210;2024-01-06T06:44:02;3.45;;;1.10;;
68792;SDS011;55778;54.346;10.210;2024-01-06T06:46:27;3.80;;;1.50;;
68792;SDS011;55778;54.346;10.210;2024-01-06T06:48:52;4.55;;;1.13;;
68792;SDS011;55778;54.346;10.210;2024-01-06T06:51:18;3.05;;;0.95;;
68792;SDS011;55778;54.346;10.210;2024-01-06T06:53:43;5.13;;;1.30;;
68792;SDS011;55778;54.346;10.210;2024-01-06T06:56:08;3.33;;;1.00;;
68792;SDS011;55778;54.346;10.210;2024-01-06T06:58:34;2.72;;;1.00;;
68792;SDS011;55778;54.346;10.210;2024-01-06T07:00:59;2.42;;;1.10;;
68792;SDS011;55778;54.346;10.210;2024-01-06T07:03:25;2.72;;;0.95;;
68792;SDS011;55778;54.346;10.210;2024-01-06T07:05:51;2.63;;;1.00;;
68792;SDS011;55778;54.346;10.210;2024-01-06T07:08:17;2.75;;;0.90;;
68792;SDS011;55778;54.346;10.210;2024-01-06T07:10:43;2.88;;;1.00;;
68792;SDS011;55778;54.346;10.210;2024-01-06T07:13:08;2.08;;;0.88;;
68792;SDS011;55778;54.346;10.210;2024-01-06T07:15:33;1.42;;;0.90;;
68792;SDS011;55778;54.346;10.210;2024-01-06T07:17:59;2.88;;;0.80;;
68792;SDS011;55778;54.346;10.210;2024-01-06T07:20:24;1.48;;;0.93;;
68792;SDS011;55778;54.346;10.210;2024-01-06T07:22:49;2.22;;;0.93;;
68792;SDS011;55778;54.346;10.210;2024-01-06T07:25:15;3.35;;;0.95;;
68792;SDS011;55778;54.346;10.210;2024-01-06T07:27:40;2.63;;;0.90;;
68792;SDS011;55778;54.346;10.210;2024-01-06T07:30:06;3.38;;;1.23;;
68792;SDS011;55778;54.346;10.210;2024-01-06T07:32:34;2.05;;;1.10;;
68792;SDS011;55778;54.346;10.210;2024-01-06T07:35:00;2.33;;;1.10;;
68792;SDS011;55778;54.346;10.210;2024-01-06T07:37:25;1.40;;;0.80;;
68792;SDS011;55778;54.346;10.210;2024-01-06T07:39:51;1.08;;;0.70;;
68792;SDS011;55778;54.346;10.210;2024-01-06T07:42:16;1.83;;;0.90;;
68792;SDS011;55778;54.346;10.210;2024-01-06T07:44:42;2.63;;;1.00;;
68792;SDS011;55778;54.346;10.210;2024-01-06T07:47:09;1.50;;;0.90;;
68792;SDS011;55778;54.346;10.210;2024-01-06T07:49:37;4.45;;;0.85;;
68792;SDS011;55778;54.346;10.210;2024-01-06T07:52:02;1.23;;;0.95;;
68792;SDS011;55778;54.346;10.210;2024-01-06T07:54:28;2.97;;;0.85;;
68792;SDS011;55778;54.346;10.210;2024-01-06T07:56:53;2.78;;;1.00;;
68792;SDS011;55778;54.346;10.210;2024-01-06T07:59:19;1.25;;;0.80;;
68792;SDS011;55778;54.346;10.210;2024-01-06T08:01:44;2.45;;;1.10;;
68792;SDS011;55778;54.346;10.210;2024-01-06T08:04:09;4.35;;;1.30;;
68792;SDS011;55778;54.346;10.210;2024-01-06T08:06:35;1.45;;;0.90;;
68792;SDS011;55778;54.346;10.210;2024-01-06T08:09:00;3.85;;;1.10;;
68792;SDS011;55778;54.346;10.210;2024-01-06T08:11:26;2.60;;;0.85;;
68792;SDS011;55778;54.346;10.210;2024-01-06T08:13:51;7.22;;;1.70;;
68792;SDS011;55778;54.346;10.210;2024-01-06T08:16:17;3.42;;;1.00;;
68792;SDS011;55778;54.346;10.210;2024-01-06T08:18:43;4.00;;;1.13;;
68792;SDS011;55778;54.346;10.210;2024-01-06T08:21:10;1.98;;;1.13;;
68792;SDS011;55778;54.346;10.210;2024-01-06T08:23:35;2.90;;;1.23;;
68792;SDS011;55778;54.346;10.210;2024-01-06T08:26:01;2.30;;;1.10;;
68792;SDS011;55778;54.346;10.210;2024-01-06T08:28:26;4.50;;;1.13;;
68792;SDS011;55778;54.346;10.210;2024-01-06T08:30:52;1.40;;;0.85;;
68792;SDS011;55778;54.346;10.210;2024-01-06T08:33:17;1.70;;;0.90;;
68792;SDS011;55778;54.346;10.210;2024-01-06T08:35:43;2.50;;;1.30;;
68792;SDS011;55778;54.346;10.210;2024-01-06T08:38:09;3.88;;;1.10;;
68792;SDS011;55778;54.346;10.210;2024-01-06T08:40:34;3.25;;;1.00;;
68792;SDS011;55778;54.346;10.210;2024-01-06T08:43:00;2.50;;;0.85;;
68792;SDS011;55778;54.346;10.210;2024-01-06T08:45:26;2.60;;;1.20;;
68792;SDS011;55778;54.346;10.210;2024-01-06T08:47:51;2.47;;;1.10;;
68792;SDS011;55778;54.346;10.210;2024-01-06T08:50:17;1.50;;;1.00;;
68792;SDS011;55778;54.346;10.210;2024-01-06T08:52:42;2.63;;;1.27;;
68792;SDS011;55778;54.346;10.210;2024-01-06T08:55:08;2.13;;;1.00;;
68792;SDS011;55778;54.346;10.210;2024-01-06T08:57:33;5.70;;;1.27;;
68792;SDS011;55778;54.346;10.210;2024-01-06T08:59:58;3.13;;;1.50;;
68792;SDS011;55778;54.346;10.210;2024-01-06T09:02:24;1.77;;;1.00;;
68792;SDS011;55778;54.346;10.210;2024-01-06T09:04:49;2.05;;;1.10;;
68792;SDS011;55778;54.346;10.210;2024-01-06T09:07:14;4.40;;;1.30;;
68792;SDS011;55778;54.346;10.210;2024-01-06T09:09:42;3.10;;;1.10;;
68792;SDS011;55778;54.346;10.210;2024-01-06T09:12:07;3.65;;;1.02;;
68792;SDS011;55778;54.346;10.210;2024-01-06T09:14:33;2.83;;;1.15;;
68792;SDS011;55778;54.346;10.210;2024-01-06T09:16:58;3.80;;;1.23;;
68792;SDS011;55778;54.346;10.210;2024-01-06T09:19:24;2.13;;;1.08;;
68792;SDS011;55778;54.346;10.210;2024-01-06T09:21:49;1.58;;;0.82;;
68792;SDS011;55778;54.346;10.210;2024-01-06T09:24:14;3.03;;;1.17;;
68792;SDS011;55778;54.346;10.210;2024-01-06T09:26:40;3.65;;;1.00;;
68792;SDS011;55778;54.346;10.210;2024-01-06T09:29:05;5.22;;;1.23;;
68792;SDS011;55778;54.346;10.210;2024-01-06T09:31:31;5.75;;;1.30;;
68792;SDS011;55778;54.346;10.210;2024-01-06T09:33:59;4.00;;;1.20;;
68792;SDS011;55778;54.346;10.210;2024-01-06T09:36:27;3.45;;;1.40;;
68792;SDS011;55778;54.346;10.210;2024-01-06T09:38:52;4.88;;;2.00;;
68792;SDS011;55778;54.346;10.210;2024-01-06T09:41:18;3.10;;;1.10;;
68792;SDS011;55778;54.346;10.210;2024-01-06T09:43:43;2.55;;;1.25;;
68792;SDS011;55778;54.346;10.210;2024-01-06T09:46:10;5.28;;;1.60;;
68792;SDS011;55778;54.346;10.210;2024-01-06T09:48:53;1.70;;;1.10;;
68792;SDS011;55778;54.346;10.210;2024-01-06T09:51:19;3.28;;;1.30;;
68792;SDS011;55778;54.346;10.210;2024-01-06T09:53:49;3.20;;;1.10;;
68792;SDS011;55778;54.346;10.210;2024-01-06T09:56:32;2.50;;;1.30;;
68792;SDS011;55778;54.346;10.210;2024-01-06T09:58:59;2.75;;;1.13;;
68792;SDS011;55778;54.346;10.210;2024-01-06T10:01:25;2.45;;;1.10;;
68792;SDS011;55778;54.346;10.210;2024-01-06T10:03:50;1.33;;;1.00;;
68792;SDS011;55778;54.346;10.210;2024-01-06T10:06:16;1.80;;;1.10;;
68792;SDS011;55778;54.346;10.210;2024-01-06T10:08:42;1.60;;;0.98;;
68792;SDS011;55778;54.346;10.210;2024-01-06T10:11:18;4.35;;;1.30;;
68792;SDS011;55778;54.346;10.210;2024-01-06T10:13:50;3.20;;;1.45;;
68792;SDS011;55778;54.346;10.210;2024-01-06T10:16:16;3.30;;;1.00;;
68792;SDS011;55778;54.346;10.210;2024-01-06T10:18:41;3.53;;;1.55;;
68792;SDS011;55778;54.346;10.210;2024-01-06T10:21:09;2.25;;;1.20;;
68792;SDS011;55778;54.346;10.210;2024-01-06T10:23:34;2.60;;;1.08;;
68792;SDS011;55778;54.346;10.210;2024-01-06T10:26:01;2.58;;;1.15;;
68792;SDS011;55778;54.346;10.210;2024-01-06T10:28:27;2.55;;;1.10;;
68792;SDS011;55778;54.346;10.210;2024-01-06T10:30:54;1.58;;;0.95;;
68792;SDS011;55778;54.346;10.210;2024-01-06T10:33:21;2.67;;;0.95;;
68792;SDS011;55778;54.346;10.210;2024-01-06T10:35:47;2.00;;;1.08;;
68792;SDS011;55778;54.346;10.210;2024-01-06T10:38:14;3.15;;;1.40;;
68792;SDS011;55778;54.346;10.210;2024-01-06T10:43:32;2.63;;;0.95;;
68792;SDS011;55778;54.346;10.210;2024-01-06T10:46:03;5.63;;;1.58;;
68792;SDS011;55778;54.346;10.210;2024-01-06T10:48:32;2.97;;;1.23;;
68792;SDS011;55778;54.346;10.210;2024-01-06T10:50:59;5.03;;;1.10;;
68792;SDS011;55778;54.346;10.210;2024-01-06T10:53:26;5.25;;;1.05;;
68792;SDS011;55778;54.346;10.210;2024-01-06T10:55:52;2.75;;;1.13;;
68792;SDS011;55778;54.346;10.210;2024-01-06T10:58:18;4.63;;;1.50;;
68792;SDS011;55778;54.346;10.210;2024-01-06T11:00:43;2.67;;;1.02;;
68792;SDS011;55778;54.346;10.210;2024-01-06T11:03:09;2.20;;;1.20;;
68792;SDS011;55778;54.346;10.210;2024-01-06T11:05:35;4.10;;;1.48;;
68792;SDS011;55778;54.346;10.210;2024-01-06T11:08:02;2.35;;;1.10;;
68792;SDS011;55778;54.346;10.210;2024-01-06T11:10:31;5.00;;;1.38;;
68792;SDS011;55778;54.346;10.210;2024-01-06T11:13:10;4.57;;;1.40;;
68792;SDS011;55778;54.346;10.210;2024-01-06T11:18:15;4.53;;;1.58;;
68792;SDS011;55778;54.346;10.210;2024-01-06T11:23:37;2.65;;;1.13;;
68792;SDS011;55778;54.346;10.210;2024-01-06T11:26:03;2.80;;;1.60;;
68792;SDS011;55778;54.346;10.210;2024-01-06T11:28:28;4.47;;;1.42;;
68792;SDS011;55778;54.346;10.210;2024-01-06T11:31:08;4.15;;;1.98;;
68792;SDS011;55778;54.346;10.210;2024-01-06T11:33:40;3.33;;;1.45;;
68792;SDS011;55778;54.346;10.210;2024-01-06T11:36:08;4.93;;;1.70;;
68792;SDS011;55778;54.346;10.210;2024-01-06T11:38:38;4.07;;;1.50;;
68792;SDS011;55778;54.346;10.210;2024-01-06T11:41:05;2.75;;;1.65;;
68792;SDS011;55778;54.346;10.210;2024-01-06T11:43:31;2.05;;;1.23;;
68792;SDS011;55778;54.346;10.210;2024-01-06T11:45:59;4.30;;;1.73;;
68792;SDS011;55778;54.346;10.210;2024-01-06T11:48:27;4.65;;;1.60;;
68792;SDS011;55778;54.346;10.210;2024-01-06T11:50:54;3.53;;;1.60;;
68792;SDS011;55778;54.346;10.210;2024-01-06T11:53:20;3.35;;;1.52;;
68792;SDS011;55778;54.346;10.210;2024-01-06T11:55:48;2.55;;;1.55;;
68792;SDS011;55778;54.346;10.210;2024-01-06T11:58:16;3.42;;;1.60;;
68792;SDS011;55778;54.346;10.210;2024-01-06T12:00:42;5.18;;;1.60;;
68792;SDS011;55778;54.346;10.210;2024-01-06T12:03:07;4.30;;;1.67;;
68792;SDS011;55778;54.346;10.210;2024-01-06T12:05:33;3.25;;;1.50;;
68792;SDS011;55778;54.346;10.210;2024-01-06T12:10:26;2.95;;;1.23;;
68792;SDS011;55778;54.346;10.210;2024-01-06T12:12:59;3.88;;;1.60;;
68792;SDS011;55778;54.346;10.210;2024-01-06T12:15:28;4.35;;;1.40;;
68792;SDS011;55778;54.346;10.210;2024-01-06T12:17:54;2.70;;;1.33;;
68792;SDS011;55778;54.346;10.210;2024-01-06T12:20:21;6.20;;;1.58;;
68792;SDS011;55778;54.346;10.210;2024-01-06T12:22:47;5.00;;;1.52;;
68792;SDS011;55778;54.346;10.210;2024-01-06T12:25:14;2.60;;;1.50;;
68792;SDS011;55778;54.346;10.210;2024-01-06T12:27:43;4.03;;;1.95;;
68792;SDS011;55778;54.346;10.210;2024-01-06T12:30:16;5.15;;;1.60;;
68792;SDS011;55778;54.346;10.210;2024-01-06T12:32:44;2.78;;;1.45;;
68792;SDS011;55778;54.346;10.210;2024-01-06T12:35:11;6.20;;;1.67;;
68792;SDS011;55778;54.346;10.210;2024-01-06T12:37:37;2.50;;;1.33;;
68792;SDS011;55778;54.346;10.210;2024-01-06T12:40:03;5.47;;;1.60;;
68792;SDS011;55778;54.346;10.210;2024-01-06T12:42:28;2.60;;;1.60;;
68792;SDS011;55778;54.346;10.210;2024-01-06T12:44:54;3.92;;;1.55;;
68792;SDS011;55778;54.346;10.210;2024-01-06T12:47:19;4.43;;;1.40;;
68792;SDS011;55778;54.346;10.210;2024-01-06T12:49:45;2.88;;;1.48;;
68792;SDS011;55778;54.346;10.210;2024-01-06T12:52:11;4.63;;;1.83;;
68792;SDS011;55778;54.346;10.210;2024-01-06T12:54:36;5.30;;;1.80;;
68792;SDS011;55778;54.346;10.210;2024-01-06T12:57:02;3.28;;;1.38;;
68792;SDS011;55778;54.346;10.210;2024-01-06T12:59:27;2.78;;;1.50;;
68792;SDS011;55778;54.346;10.210;2024-01-06T13:01:52;4.57;;;1.50;;
68792;SDS011;55778;54.346;10.210;2024-01-06T13:04:18;2.35;;;1.65;;
68792;SDS011;55778;54.346;10.210;2024-01-06T13:06:43;4.50;;;1.98;;
68792;SDS011;55778;54.346;10.210;2024-01-06T13:09:09;4.15;;;1.90;;
68792;SDS011;55778;54.346;10.210;2024-01-06T13:11:37;2.50;;;1.55;;
68792;SDS011;55778;54.346;10.210;2024-01-06T13:14:03;4.88;;;1.77;;
68792;SDS011;55778;54.346;10.210;2024-01-06T13:16:28;4.13;;;1.73;;
68792;SDS011;55778;54.346;10.210;2024-01-06T13:18:53;4.65;;;2.00;;
68792;SDS011;55778;54.346;10.210;2024-01-06T13:21:20;4.13;;;1.90;;
68792;SDS011;55778;54.346;10.210;2024-01-06T13:23:47;5.65;;;1.77;;
68792;SDS011;55778;54.346;10.210;2024-01-06T13:26:12;3.47;;;1.45;;
68792;SDS011;55778;54.346;10.210;2024-01-06T13:28:38;5.85;;;1.67;;
68792;SDS011;55778;54.346;10.210;2024-01-06T13:31:03;6.25;;;1.80;;
68792;SDS011;55778;54.346;10.210;2024-01-06T13:33:28;5.40;;;1.65;;
68792;SDS011;55778;54.346;10.210;2024-01-06T13:35:54;5.10;;;2.00;;
68792;SDS011;55778;54.346;10.210;2024-01-06T13:38:19;4.50;;;1.80;;
68792;SDS011;55778;54.346;10.210;2024-01-06T13:40:45;3.83;;;1.63;;
68792;SDS011;55778;54.346;10.210;2024-01-06T13:43:10;6.38;;;1.77;;
68792;SDS011;55778;54.346;10.210;2024-01-06T13:45:40;3.35;;;1.73;;
68792;SDS011;55778;54.346;10.210;2024-01-06T13:48:08;5.47;;;1.95;;
68792;SDS011;55778;54.346;10.210;2024-01-06T13:50:33;3.08;;;1.55;;
68792;SDS011;55778;54.346;10.210;2024-01-06T13:52:59;5.22;;;1.80;;
68792;SDS011;55778;54.346;10.210;2024-01-06T13:55:25;3.80;;;1.48;;
68792;SDS011;55778;54.346;10.210;2024-01-06T13:57:50;8.20;;;1.90;;
68792;SDS011;55778;54.346;10.210;2024-01-06T14:00:16;4.65;;;1.65;;
68792;SDS011;55778;54.346;10.210;2024-01-06T14:02:44;4.13;;;2.00;;
68792;SDS011;55778;54.346;10.210;2024-01-06T14:05:12;6.72;;;1.80;;
68792;SDS011;55778;54.346;10.210;2024-01-06T14:07:38;2.78;;;1.33;;
68792;SDS011;55778;54.346;10.210;2024-01-06T14:10:05;4.20;;;1.40;;
68792;SDS011;55778;54.346;10.210;2024-01-06T14:12:31;3.80;;;1.52;;
68792;SDS011;55778;54.346;10.210;2024-01-06T14:14:57;5.78;;;1.30;;
68792;SDS011;55778;54.346;10.210;2024-01-06T14:17:23;7.22;;;1.75;;
68792;SDS011;55778;54.346;10.210;2024-01-06T14:19:49;4.13;;;1.30;;
68792;SDS011;55778;54.346;10.210;2024-01-06T14:22:15;4.28;;;1.40;;
68792;SDS011;55778;54.346;10.210;2024-01-06T14:24:40;5.72;;;2.03;;
68792;SDS011;55778;54.346;10.210;2024-01-06T14:27:05;8.52;;;1.92;;
68792;SDS011;55778;54.346;10.210;2024-01-06T14:29:31;3.70;;;1.30;;
68792;SDS011;55778;54.346;10.210;2024-01-06T14:31:56;3.00;;;1.33;;
68792;SDS011;55778;54.346;10.210;2024-01-06T14:34:22;3.92;;;1.55;;
68792;SDS011;55778;54.346;10.210;2024-01-06T14:36:48;6.18;;;1.45;;